sensor_id;sensor_type;location;lat;lon;timestamp;pressure;altitude;pressure_sealevel;temperature;humidity
75414;BME280;64758;52.122;5.404;2023-07-31T00:02:10;101148.88;;;14.85;100.00
75414;BME280;64758;52.122;5.404;2023-07-31T00:04:36;101159.75;;;14.84;100.00
75414;BME280;64758;52.122;5.404;2023-07-31T00:07:03;101144.16;;;14.87;100.00
75414;BME280;64758;52.122;5.404;2023-07-31T00:09:30;101147.44;;;14.89;100.00
75414;BME280;64758;52.122;5.404;2023-07-31T00:11:57;101137.97;;;14.93;100.00
75414;BME280;64758;52.122;5.404;2023-07-31T00:14:24;101120.66;;;14.96;100.00
75414;BME280;64758;52.122;5.404;2023-07-31T00:16:50;101119.63;;;14.97;100.00
75414;BME280;64758;52.122;5.404;2023-07-31T00:19:18;101110.16;;;15.01;100.00
75414;BME280;64758;52.122;5.404;2023-07-31T00:21:44;101108.31;;;15.08;100.00
75414;BME280;64758;52.122;5.404;2023-07-31T00:24:11;101121.25;;;15.11;100.00
75414;BME280;64758;52.122;5.404;2023-07-31T00:26:37;101110.56;;;15.11;100.00
75414;BME280;64758;52.122;5.404;2023-07-31T00:29:04;101108.31;;;15.08;100.00
75414;BME280;64758;52.122;5.404;2023-07-31T00:31:31;101109.53;;;15.12;100.00
75414;BME280;64758;52.122;5.404;2023-07-31T00:33:57;101111.78;;;15.15;100.00
75414;BME280;64758;52.122;5.404;2023-07-31T00:36:24;101107.66;;;15.19;100.00
75414;BME280;64758;52.122;5.404;2023-07-31T00:38:50;101107.25;;;15.22;100.00
75414;BME280;64758;52.122;5.404;2023-07-31T00:41:17;101112.41;;;15.30;100.00
75414;BME280;64758;52.122;5.404;2023-07-31T00:43:44;101102.69;;;15.35;100.00
75414;BME280;64758;52.122;5.404;2023-07-31T00:46:10;101101.66;;;15.42;100.00
75414;BME280;64758;52.122;5.404;2023-07-31T00:48:37;101104.09;;;15.50;100.00
75414;BME280;64758;52.122;5.404;2023-07-31T00:51:06;101097.69;;;15.58;100.00
75414;BME280;64758;52.122;5.404;2023-07-31T00:53:33;101091.28;;;15.65;100.00
75414;BME280;64758;52.122;5.404;2023-07-31T00:56:00;101098.25;;;15.73;100.00
75414;BME280;64758;52.122;5.404;2023-07-31T00:58:26;101095.31;;;15.81;100.00
75414;BME280;64758;52.122;5.404;2023-07-31T01:00:53;101091.16;;;15.85;100.00
75414;BME280;64758;52.122;5.404;2023-07-31T01:03:20;101077.97;;;15.90;100.00
75414;BME280;64758;52.122;5.404;2023-07-31T01:09:09;101084.28;;;16.02;100.00
75414;BME280;64758;52.122;5.404;2023-07-31T01:11:50;101086.53;;;16.05;100.00
75414;BME280;64758;52.122;5.404;2023-07-31T01:14:18;101080.53;;;16.09;100.00
75414;BME280;64758;52.122;5.404;2023-07-31T01:16:45;101084.88;;;16.10;100.00
75414;BME280;64758;52.122;5.404;2023-07-31T01:19:17;101092.28;;;16.08;100.00
75414;BME280;64758;52.122;5.404;2023-07-31T01:27:47;101089.38;;;16.10;100.00
75414;BME280;64758;52.122;5.404;2023-07-31T01:30:21;101075.59;;;16.06;100.00
75414;BME280;64758;52.122;5.404;2023-07-31T01:32:49;101087.75;;;16.09;100.00
75414;BME280;64758;52.122;5.404;2023-07-31T01:35:17;101084.03;;;16.10;100.00
75414;BME280;64758;52.122;5.404;2023-07-31T01:37:45;101093.50;;;16.12;100.00
75414;BME280;64758;52.122;5.404;2023-07-31T01:40:12;101089.78;;;16.13;100.00
75414;BME280;64758;52.122;5.404;2023-07-31T01:42:38;101092.25;;;16.15;100.00
75414;BME280;64758;52.122;5.404;2023-07-31T01:45:05;101088.53;;;16.16;100.00
75414;BME280;64758;52.122;5.404;2023-07-31T01:47:32;101083.41;;;16.14;100.00
75414;BME280;64758;52.122;5.404;2023-07-31T01:49:59;101082.78;;;16.12;100.00
75414;BME280;64758;52.122;5.404;2023-07-31T01:52:25;101076.38;;;16.13;100.00
75414;BME280;64758;52.122;5.404;2023-07-31T01:54:52;101069.38;;;16.12;100.00
75414;BME280;64758;52.122;5.404;2023-07-31T01:57:18;101078.03;;;16.14;100.00
75414;BME280;64758;52.122;5.404;2023-07-31T01:59:45;101075.34;;;16.14;100.00
75414;BME280;64758;52.122;5.404;2023-07-31T02:02:12;101076.38;;;16.13;100.00
75414;BME280;64758;52.122;5.404;2023-07-31T02:04:39;101070.78;;;16.15;100.00
75414;BME280;64758;52.122;5.404;2023-07-31T02:07:07;101079.06;;;16.13;100.00
75414;BME280;64758;52.122;5.404;2023-07-31T02:09:33;101060.50;;;16.12;100.00
75414;BME280;64758;52.122;5.404;2023-07-31T02:12:00;101051.88;;;16.10;100.00
75414;BME280;64758;52.122;5.404;2023-07-31T02:14:26;101052.69;;;16.10;100.00
75414;BME280;64758;52.122;5.404;2023-07-31T02:16:53;101049.84;;;16.05;100.00
75414;BME280;64758;52.122;5.404;2023-07-31T02:19:19;101047.59;;;16.02;100.00
75414;BME280;64758;52.122;5.404;2023-07-31T02:21:46;101036.66;;;16.04;100.00
75414;BME280;64758;52.122;5.404;2023-07-31T02:24:12;101041.56;;;16.07;100.00
75414;BME280;64758;52.122;5.404;2023-07-31T02:26:39;101037.91;;;16.01;100.00
75414;BME280;64758;52.122;5.404;2023-07-31T02:29:06;101042.84;;;16.04;100.00
75414;BME280;64758;52.122;5.404;2023-07-31T02:31:32;101041.19;;;16.03;100.00
75414;BME280;64758;52.122;5.404;2023-07-31T02:33:59;101039.56;;;16.02;100.00
75414;BME280;64758;52.122;5.404;2023-07-31T02:36:25;101042.00;;;16.04;100.00
75414;BME280;64758;52.122;5.404;2023-07-31T02:38:52;101026.59;;;15.99;100.00
75414;BME280;64758;52.122;5.404;2023-07-31T02:41:18;101025.56;;;16.00;100.00
75414;BME280;64758;52.122;5.404;2023-07-31T02:43:45;101042.84;;;16.04;100.00
75414;BME280;64758;52.122;5.404;2023-07-31T02:46:11;101041.63;;;16.00;100.00
75414;BME280;64758;52.122;5.404;2023-07-31T02:48:38;101029.88;;;16.01;100.00
75414;BME280;64758;52.122;5.404;2023-07-31T02:51:05;101032.13;;;16.04;100.00
75414;BME280;64758;52.122;5.404;2023-07-31T02:53:31;101029.88;;;16.01;100.00
75414;BME280;64758;52.122;5.404;2023-07-31T02:55:58;101024.72;;;16.00;100.00
75414;BME280;64758;52.122;5.404;2023-07-31T02:58:24;101018.56;;;15.99;100.00
75414;BME280;64758;52.122;5.404;2023-07-31T03:00:51;101021.59;;;16.03;100.00
75414;BME280;64758;52.122;5.404;2023-07-31T03:03:17;101020.81;;;16.02;100.00
75414;BME280;64758;52.122;5.404;2023-07-31T03:05:44;101008.81;;;16.05;100.00
75414;BME280;64758;52.122;5.404;2023-07-31T03:08:10;101023.03;;;16.05;100.00
75414;BME280;64758;52.122;5.404;2023-07-31T03:10:37;101013.38;;;16.04;100.00
75414;BME280;64758;52.122;5.404;2023-07-31T03:13:03;101016.25;;;16.03;100.00
75414;BME280;64758;52.122;5.404;2023-07-31T03:15:30;101012.16;;;16.00;100.00
75414;BME280;64758;52.122;5.404;2023-07-31T03:17:57;101018.72;;;16.04;100.00
75414;BME280;64758;52.122;5.404;2023-07-31T03:20:23;101020.97;;;16.07;100.00
75414;BME280;64758;52.122;5.404;2023-07-31T03:22:50;101010.69;;;16.04;100.00
75414;BME280;64758;52.122;5.404;2023-07-31T03:25:16;101020.38;;;16.05;100.00
75414;BME280;64758;52.122;5.404;2023-07-31T03:27:43;101020.56;;;16.04;100.00
75414;BME280;64758;52.122;5.404;2023-07-31T03:30:10;101016.25;;;16.03;100.00
75414;BME280;64758;52.122;5.404;2023-07-31T03:32:36;101013.19;;;15.99;100.00
75414;BME280;64758;52.122;5.404;2023-07-31T03:35:03;101014.22;;;15.98;100.00
75414;BME280;64758;52.122;5.404;2023-07-31T03:37:31;101013.19;;;15.99;100.00
75414;BME280;64758;52.122;5.404;2023-07-31T03:39:58;101015.88;;;15.99;100.00
75414;BME280;64758;52.122;5.404;2023-07-31T03:42:25;101011.97;;;15.95;100.00
75414;BME280;64758;52.122;5.404;2023-07-31T03:44:51;101014.44;;;15.97;100.00
75414;BME280;64758;52.122;5.404;2023-07-31T03:47:18;101011.16;;;15.95;100.00
75414;BME280;64758;52.122;5.404;2023-07-31T03:49:44;101012.19;;;15.94;100.00
75414;BME280;64758;52.122;5.404;2023-07-31T03:52:11;101017.34;;;15.95;100.00
75414;BME280;64758;52.122;5.404;2023-07-31T03:54:37;101009.91;;;15.97;100.00
75414;BME280;64758;52.122;5.404;2023-07-31T03:57:05;101010.09;;;15.96;100.00
75414;BME280;64758;52.122;5.404;2023-07-31T03:59:32;101006.03;;;15.93;100.00
75414;BME280;64758;52.122;5.404;2023-07-31T04:01:58;101006.81;;;15.94;100.00
75414;BME280;64758;52.122;5.404;2023-07-31T04:04:25;101000.06;;;15.91;100.00
75414;BME280;64758;52.122;5.404;2023-07-31T04:06:51;101001.09;;;15.90;100.00
75414;BME280;64758;52.122;5.404;2023-07-31T04:09:18;100992.22;;;15.90;100.00
75414;BME280;64758;52.122;5.404;2023-07-31T04:11:44;100987.28;;;15.87;100.00
75414;BME280;64758;52.122;5.404;2023-07-31T04:14:11;100993.50;;;15.87;100.00
75414;BME280;64758;52.122;5.404;2023-07-31T04:16:38;100986.94;;;15.83;100.00
75414;BME280;64758;52.122;5.404;2023-07-31T04:19:04;100979.94;;;15.82;100.00
75414;BME280;64758;52.122;5.404;2023-07-31T04:21:31;100974.16;;;15.79;100.00
75414;BME280;64758;52.122;5.404;2023-07-31T04:23:58;100971.72;;;15.77;100.00
75414;BME280;64758;52.122;5.404;2023-07-31T04:26:24;100964.72;;;15.76;100.00
75414;BME280;64758;52.122;5.404;2023-07-31T04:28:51;100967.59;;;15.75;100.00
75414;BME280;64758;52.122;5.404;2023-07-31T04:31:18;100972.75;;;15.76;100.00
75414;BME280;64758;52.122;5.404;2023-07-31T04:33:44;100971.31;;;15.74;100.00
75414;BME280;64758;52.122;5.404;2023-07-31T04:36:11;100970.06;;;15.76;100.00
75414;BME280;64758;52.122;5.404;2023-07-31T04:38:37;100982.44;;;15.77;100.00
75414;BME280;64758;52.122;5.404;2023-07-31T04:41:04;100978.09;;;15.76;100.00
75414;BME280;64758;52.122;5.404;2023-07-31T04:43:32;100981.59;;;15.77;100.00
75414;BME280;64758;52.122;5.404;2023-07-31T04:45:58;100972.94;;;15.75;100.00
75414;BME280;64758;52.122;5.404;2023-07-31T04:48:25;100973.34;;;15.78;100.00
75414;BME280;64758;52.122;5.404;2023-07-31T04:50:51;100981.41;;;15.78;100.00
75414;BME280;64758;52.122;5.404;2023-07-31T04:53:18;100972.75;;;15.76;100.00
75414;BME280;64758;52.122;5.404;2023-07-31T04:55:45;100974.41;;;15.77;100.00
75414;BME280;64758;52.122;5.404;2023-07-31T04:58:11;100966.78;;;15.74;100.00
75414;BME280;64758;52.122;5.404;2023-07-31T05:00:38;100962.25;;;15.75;100.00
75414;BME280;64758;52.122;5.404;2023-07-31T05:03:04;100962.25;;;15.75;100.00
75414;BME280;64758;52.122;5.404;2023-07-31T05:05:31;100949.28;;;15.72;100.00
75414;BME280;64758;52.122;5.404;2023-07-31T05:07:58;100945.78;;;15.71;100.00
75414;BME280;64758;52.122;5.404;2023-07-31T05:10:24;100954.88;;;15.70;100.00
75414;BME280;64758;52.122;5.404;2023-07-31T05:12:51;100940.88;;;15.68;100.00
75414;BME280;64758;52.122;5.404;2023-07-31T05:15:17;100947.03;;;15.69;100.00
75414;BME280;64758;52.122;5.404;2023-07-31T05:17:44;100949.50;;;15.70;100.00
75414;BME280;64758;52.122;5.404;2023-07-31T05:20:11;100941.69;;;15.69;100.00
75414;BME280;64758;52.122;5.404;2023-07-31T05:22:37;100946.66;;;15.65;100.00
75414;BME280;64758;52.122;5.404;2023-07-31T05:25:04;100951.19;;;15.65;100.00
75414;BME280;64758;52.122;5.404;2023-07-31T05:27:31;100948.31;;;15.66;100.00
75414;BME280;64758;52.122;5.404;2023-07-31T05:29:58;100944.78;;;15.66;100.00
75414;BME280;64758;52.122;5.404;2023-07-31T05:32:25;100935.34;;;15.63;100.00
75414;BME280;64758;52.122;5.404;2023-07-31T05:34:52;100944.63;;;15.61;100.00
75414;BME280;64758;52.122;5.404;2023-07-31T05:37:19;100935.16;;;15.58;100.00
75414;BME280;64758;52.122;5.404;2023-07-31T05:39:46;100932.09;;;15.55;100.00
75414;BME280;64758;52.122;5.404;2023-07-31T05:42:12;100928.19;;;15.51;100.00
75414;BME280;64758;52.122;5.404;2023-07-31T05:44:39;100923.88;;;15.50;100.00
75414;BME280;64758;52.122;5.404;2023-07-31T05:47:06;100914.22;;;15.49;100.00
75414;BME280;64758;52.122;5.404;2023-07-31T05:49:32;100917.31;;;15.46;100.00
75414;BME280;64758;52.122;5.404;2023-07-31T05:51:59;100919.38;;;15.44;100.00
75414;BME280;64758;52.122;5.404;2023-07-31T05:54:25;100910.56;;;15.43;100.00
75414;BME280;64758;52.122;5.404;2023-07-31T05:56:52;100910.13;;;15.46;100.00
75414;BME280;64758;52.122;5.404;2023-07-31T05:59:18;100909.69;;;15.49;100.00
75414;BME280;64758;52.122;5.404;2023-07-31T06:01:45;100906.41;;;15.47;100.00
75414;BME280;64758;52.122;5.404;2023-07-31T06:04:11;100908.66;;;15.50;100.00
75414;BME280;64758;52.122;5.404;2023-07-31T06:06:38;100900.63;;;15.50;100.00
75414;BME280;64758;52.122;5.404;2023-07-31T06:09:05;100897.09;;;15.50;100.00
75414;BME280;64758;52.122;5.404;2023-07-31T06:11:33;100905.13;;;15.50;100.00
75414;BME280;64758;52.122;5.404;2023-07-31T06:13:59;100892.41;;;15.45;100.00
75414;BME280;64758;52.122;5.404;2023-07-31T06:16:26;100885.78;;;15.48;100.00
75414;BME280;64758;52.122;5.404;2023-07-31T06:18:53;100888.28;;;15.49;100.00
75414;BME280;64758;52.122;5.404;2023-07-31T06:21:20;100903.06;;;15.52;100.00
75414;BME280;64758;52.122;5.404;2023-07-31T06:23:46;100890.28;;;15.54;100.00
75414;BME280;64758;52.122;5.404;2023-07-31T06:26:13;100896.25;;;15.56;100.00
75414;BME280;64758;52.122;5.404;2023-07-31T06:28:39;100889.03;;;15.56;100.00
75414;BME280;64758;52.122;5.404;2023-07-31T06:31:06;100883.69;;;15.56;100.00
75414;BME280;64758;52.122;5.404;2023-07-31T06:33:33;100870.91;;;15.58;100.00
75414;BME280;64758;52.122;5.404;2023-07-31T06:35:59;100880.34;;;15.61;100.00
75414;BME280;64758;52.122;5.404;2023-07-31T06:38:26;100879.91;;;15.64;100.00
75414;BME280;64758;52.122;5.404;2023-07-31T06:40:53;100873.31;;;15.66;100.00
75414;BME280;64758;52.122;5.404;2023-07-31T06:43:20;100861.75;;;15.66;100.00
75414;BME280;64758;52.122;5.404;2023-07-31T06:45:46;100869.75;;;15.72;100.00
75414;BME280;64758;52.122;5.404;2023-07-31T06:48:16;100861.28;;;15.75;100.00
75414;BME280;64758;52.122;5.404;2023-07-31T06:50:43;100859.22;;;15.77;100.00
75414;BME280;64758;52.122;5.404;2023-07-31T06:53:09;100855.50;;;15.78;100.00
75414;BME280;64758;52.122;5.404;2023-07-31T06:55:36;100858.34;;;15.83;100.00
75414;BME280;64758;52.122;5.404;2023-07-31T06:58:03;100851.53;;;15.81;100.00
75414;BME280;64758;52.122;5.404;2023-07-31T07:00:30;100844.50;;;15.86;100.00
75414;BME280;64758;52.122;5.404;2023-07-31T07:02:56;100849.19;;;15.91;100.00
75414;BME280;64758;52.122;5.404;2023-07-31T07:05:23;100848.75;;;15.94;100.00
75414;BME280;64758;52.122;5.404;2023-07-31T07:07:50;100843.78;;;15.97;100.00
75414;BME280;64758;52.122;5.404;2023-07-31T07:10:18;100837.38;;;15.98;100.00
75414;BME280;64758;52.122;5.404;2023-07-31T07:12:45;100841.25;;;16.02;100.00
75414;BME280;64758;52.122;5.404;2023-07-31T07:15:11;100841.84;;;16.04;100.00
75414;BME280;64758;52.122;5.404;2023-07-31T07:17:38;100840.56;;;16.07;100.00
75414;BME280;64758;52.122;5.404;2023-07-31T07:20:05;100836.06;;;16.07;100.00
75414;BME280;64758;52.122;5.404;2023-07-31T07:22:32;100846.69;;;16.14;100.00
75414;BME280;64758;52.122;5.404;2023-07-31T07:24:59;100837.84;;;16.13;100.00
75414;BME280;64758;52.122;5.404;2023-07-31T07:27:25;100845.44;;;16.16;100.00
75414;BME280;64758;52.122;5.404;2023-07-31T07:29:52;100847.09;;;16.17;100.00
75414;BME280;64758;52.122;5.404;2023-07-31T07:32:20;100838.00;;;16.18;100.00
75414;BME280;64758;52.122;5.404;2023-07-31T07:34:48;100837.91;;;16.25;100.00
75414;BME280;64758;52.122;5.404;2023-07-31T07:37:14;100836.28;;;16.24;100.00
75414;BME280;64758;52.122;5.404;2023-07-31T07:39:41;100830.47;;;16.27;100.00
75414;BME280;64758;52.122;5.404;2023-07-31T07:42:08;100841.78;;;16.29;100.00
75414;BME280;64758;52.122;5.404;2023-07-31T07:44:35;100829.44;;;16.28;100.00
75414;BME280;64758;52.122;5.404;2023-07-31T07:47:01;100836.22;;;16.30;100.00
75414;BME280;64758;52.122;5.404;2023-07-31T07:49:28;100843.22;;;16.31;100.00
75414;BME280;64758;52.122;5.404;2023-07-31T07:51:55;100831.47;;;16.32;100.00
75414;BME280;64758;52.122;5.404;2023-07-31T07:54:21;100827.75;;;16.33;100.00
75414;BME280;64758;52.122;5.404;2023-07-31T07:56:48;100819.88;;;16.38;100.00
75414;BME280;64758;52.122;5.404;2023-07-31T07:59:16;100822.47;;;16.45;100.00
75414;BME280;64758;52.122;5.404;2023-07-31T08:01:42;100815.59;;;16.49;100.00
75414;BME280;64758;52.122;5.404;2023-07-31T08:04:09;100814.81;;;16.48;100.00
75414;BME280;64758;52.122;5.404;2023-07-31T08:06:35;100811.09;;;16.49;100.00
75414;BME280;64758;52.122;5.404;2023-07-31T08:09:02;100819.28;;;16.54;100.00
75414;BME280;64758;52.122;5.404;2023-07-31T08:11:33;100812.63;;;16.57;100.00
75414;BME280;64758;52.122;5.404;2023-07-31T08:13:59;100818.34;;;16.60;100.00
75414;BME280;64758;52.122;5.404;2023-07-31T08:16:26;100810.88;;;16.62;100.00
75414;BME280;64758;52.122;5.404;2023-07-31T08:18:53;100797.47;;;16.62;100.00
75414;BME280;64758;52.122;5.404;2023-07-31T08:21:21;100801.72;;;16.69;100.00
75414;BME280;64758;52.122;5.404;2023-07-31T08:23:48;100802.91;;;16.73;100.00
75414;BME280;64758;52.122;5.404;2023-07-31T08:26:15;100795.81;;;16.79;100.00
75414;BME280;64758;52.122;5.404;2023-07-31T08:28:42;100805.72;;;16.78;100.00
75414;BME280;64758;52.122;5.404;2023-07-31T08:31:09;100788.94;;;16.83;100.00
75414;BME280;64758;52.122;5.404;2023-07-31T08:33:36;100793.84;;;16.86;100.00
75414;BME280;64758;52.122;5.404;2023-07-31T08:36:03;100796.44;;;16.92;100.00
75414;BME280;64758;52.122;5.404;2023-07-31T08:38:30;100796.81;;;16.96;100.00
75414;BME280;64758;52.122;5.404;2023-07-31T08:40:57;100794.50;;;16.99;100.00
75414;BME280;64758;52.122;5.404;2023-07-31T08:43:25;100793.00;;;17.03;100.00
75414;BME280;64758;52.122;5.404;2023-07-31T08:45:53;100794.97;;;17.08;100.00
75414;BME280;64758;52.122;5.404;2023-07-31T08:48:21;100791.63;;;17.12;100.00
75414;BME280;64758;52.122;5.404;2023-07-31T08:50:48;100796.28;;;17.17;100.00
75414;BME280;64758;52.122;5.404;2023-07-31T08:53:15;100794.44;;;17.17;100.00
75414;BME280;64758;52.122;5.404;2023-07-31T08:55:44;100786.25;;;17.24;100.00
75414;BME280;64758;52.122;5.404;2023-07-31T08:58:12;100784.16;;;17.26;100.00
75414;BME280;64758;52.122;5.404;2023-07-31T09:00:40;100795.38;;;17.23;100.00
75414;BME280;64758;52.122;5.404;2023-07-31T09:03:15;100797.84;;;17.24;100.00
75414;BME280;64758;52.122;5.404;2023-07-31T09:05:44;100792.59;;;17.29;100.00
75414;BME280;64758;52.122;5.404;2023-07-31T09:08:16;100800.22;;;17.32;100.00
75414;BME280;64758;52.122;5.404;2023-07-31T09:10:45;100794.13;;;17.37;100.00
75414;BME280;64758;52.122;5.404;2023-07-31T09:13:16;100796.63;;;17.38;100.00
75414;BME280;64758;52.122;5.404;2023-07-31T09:15:44;100800.69;;;17.41;100.00
75414;BME280;64758;52.122;5.404;2023-07-31T09:18:11;100796.75;;;17.43;100.00
75414;BME280;64758;52.122;5.404;2023-07-31T09:20:38;100794.50;;;17.40;100.00
75414;BME280;64758;52.122;5.404;2023-07-31T09:23:09;100781.19;;;17.34;100.00
75414;BME280;64758;52.122;5.404;2023-07-31T09:25:37;100783.06;;;17.33;100.00
75414;BME280;64758;52.122;5.404;2023-07-31T09:28:08;100784.28;;;17.31;100.00
75414;BME280;64758;52.122;5.404;2023-07-31T09:30:49;100791.75;;;17.29;100.00
75414;BME280;64758;52.122;5.404;2023-07-31T09:33:17;100774.38;;;17.31;100.00
75414;BME280;64758;52.122;5.404;2023-07-31T09:35:44;100781.53;;;17.37;100.00
75414;BME280;64758;52.122;5.404;2023-07-31T09:38:12;100781.75;;;17.36;100.00
75414;BME280;64758;52.122;5.404;2023-07-31T09:40:42;100776.75;;;17.39;100.00
75414;BME280;64758;52.122;5.404;2023-07-31T09:43:10;100775.00;;;17.45;100.00
75414;BME280;64758;52.122;5.404;2023-07-31T09:45:40;100771.16;;;17.52;100.00
75414;BME280;64758;52.122;5.404;2023-07-31T09:48:13;100775.16;;;17.61;100.00
75414;BME280;64758;52.122;5.404;2023-07-31T09:50:44;100775.84;;;17.68;100.00
75414;BME280;64758;52.122;5.404;2023-07-31T09:53:11;100770.81;;;17.72;100.00
75414;BME280;64758;52.122;5.404;2023-07-31T09:55:41;100779.47;;;17.74;100.00
75414;BME280;64758;52.122;5.404;2023-07-31T09:58:10;100777.94;;;17.78;100.00
75414;BME280;64758;52.122;5.404;2023-07-31T10:00:37;100780.28;;;17.74;100.00
75414;BME280;64758;52.122;5.404;2023-07-31T10:03:06;100766.59;;;17.76;100.00
75414;BME280;64758;52.122;5.404;2023-07-31T10:05:46;100768.81;;;17.79;100.00
75414;BME280;64758;52.122;5.404;2023-07-31T10:08:16;100758.19;;;17.84;100.00
75414;BME280;64758;52.122;5.404;2023-07-31T10:10:45;100774.44;;;17.89;100.00
75414;BME280;64758;52.122;5.404;2023-07-31T10:13:13;100776.66;;;17.92;100.00
75414;BME280;64758;52.122;5.404;2023-07-31T10:15:41;100767.16;;;17.89;100.00
75414;BME280;64758;52.122;5.404;2023-07-31T10:18:10;100777.22;;;17.93;100.00
75414;BME280;64758;52.122;5.404;2023-07-31T10:20:38;100777.13;;;17.89;100.00
75414;BME280;64758;52.122;5.404;2023-07-31T10:23:04;100774.66;;;17.87;100.00
75414;BME280;64758;52.122;5.404;2023-07-31T10:25:32;100773.38;;;17.90;100.00
75414;BME280;64758;52.122;5.404;2023-07-31T10:28:00;100768.22;;;17.88;100.00
75414;BME280;64758;52.122;5.404;2023-07-31T10:30:29;100771.97;;;17.87;100.00
75414;BME280;64758;52.122;5.404;2023-07-31T10:32:57;100775.16;;;17.84;100.00
75414;BME280;64758;52.122;5.404;2023-07-31T10:35:24;100778.06;;;17.83;100.00
75414;BME280;64758;52.122;5.404;2023-07-31T10:37:51;100772.69;;;17.83;100.00
75414;BME280;64758;52.122;5.404;2023-07-31T10:40:26;100774.31;;;17.84;100.00
75414;BME280;64758;52.122;5.404;2023-07-31T10:42:54;100773.97;;;17.92;100.00
75414;BME280;64758;52.122;5.404;2023-07-31T10:48:03;100774.06;;;17.96;100.00
75414;BME280;64758;52.122;5.404;2023-07-31T10:50:32;100770.66;;;18.01;100.00
75414;BME280;64758;52.122;5.404;2023-07-31T10:53:01;100769.72;;;18.07;100.00
75414;BME280;64758;52.122;5.404;2023-07-31T10:55:33;100773.00;;;18.09;100.00
75414;BME280;64758;52.122;5.404;2023-07-31T10:58:11;100780.38;;;18.13;100.00
75414;BME280;64758;52.122;5.404;2023-07-31T11:00:39;100770.09;;;18.10;100.00
75414;BME280;64758;52.122;5.404;2023-07-31T11:03:09;100764.69;;;18.10;100.00
75414;BME280;64758;52.122;5.404;2023-07-31T11:05:48;100771.56;;;18.18;100.00
75414;BME280;64758;52.122;5.404;2023-07-31T11:08:21;100775.09;;;18.18;100.00
75414;BME280;64758;52.122;5.404;2023-07-31T11:10:51;100767.03;;;18.18;100.00
75414;BME280;64758;52.122;5.404;2023-07-31T11:13:18;100776.00;;;18.24;100.00
75414;BME280;64758;52.122;5.404;2023-07-31T11:15:44;100777.78;;;18.30;100.00
75414;BME280;64758;52.122;5.404;2023-07-31T11:18:11;100767.03;;;18.30;100.00
75414;BME280;64758;52.122;5.404;2023-07-31T11:20:38;100772.41;;;18.30;100.00
75414;BME280;64758;52.122;5.404;2023-07-31T11:23:07;100758.63;;;18.26;100.00
75414;BME280;64758;52.122;5.404;2023-07-31T11:25:35;100768.53;;;18.26;100.00
75414;BME280;64758;52.122;5.404;2023-07-31T11:28:06;100764.22;;;18.25;100.00
75414;BME280;64758;52.122;5.404;2023-07-31T11:30:34;100759.53;;;18.20;100.00
75414;BME280;64758;52.122;5.404;2023-07-31T11:33:02;100765.25;;;18.24;100.00
75414;BME280;64758;52.122;5.404;2023-07-31T11:35:34;100762.13;;;18.27;100.00
75414;BME280;64758;52.122;5.404;2023-07-31T11:38:01;100764.22;;;18.25;100.00
75414;BME280;64758;52.122;5.404;2023-07-31T11:40:28;100757.91;;;18.19;100.00
75414;BME280;64758;52.122;5.404;2023-07-31T11:43:02;100764.81;;;18.15;100.00
75414;BME280;64758;52.122;5.404;2023-07-31T11:45:30;100757.06;;;18.19;100.00
75414;BME280;64758;52.122;5.404;2023-07-31T11:47:57;100753.00;;;18.16;100.00
75414;BME280;64758;52.122;5.404;2023-07-31T11:50:24;100752.41;;;18.14;100.00
75414;BME280;64758;52.122;5.404;2023-07-31T11:53:00;100756.97;;;18.14;100.00
75414;BME280;64758;52.122;5.404;2023-07-31T11:55:28;100749.84;;;18.08;100.00
75414;BME280;64758;52.122;5.404;2023-07-31T11:57:57;100751.63;;;18.02;100.00
75414;BME280;64758;52.122;5.404;2023-07-31T12:00:25;100754.69;;;17.94;100.00
75414;BME280;64758;52.122;5.404;2023-07-31T12:02:52;100746.03;;;17.92;100.00
75414;BME280;64758;52.122;5.404;2023-07-31T12:05:21;100751.50;;;17.97;100.00
75414;BME280;64758;52.122;5.404;2023-07-31T12:07:50;100760.75;;;18.01;100.00
75414;BME280;64758;52.122;5.404;2023-07-31T12:10:24;100755.69;;;18.05;100.00
75414;BME280;64758;52.122;5.404;2023-07-31T12:13:05;100752.53;;;18.08;100.00
75414;BME280;64758;52.122;5.404;2023-07-31T12:15:37;100755.59;;;18.11;100.00
75414;BME280;64758;52.122;5.404;2023-07-31T12:18:05;100756.75;;;18.15;100.00
75414;BME280;64758;52.122;5.404;2023-07-31T12:20:33;100761.75;;;18.23;100.00
75414;BME280;64758;52.122;5.404;2023-07-31T12:23:01;100758.00;;;18.24;100.00
75414;BME280;64758;52.122;5.404;2023-07-31T12:25:32;100746.69;;;18.22;100.00
75414;BME280;64758;52.122;5.404;2023-07-31T12:28:05;100749.50;;;18.27;100.00
75414;BME280;64758;52.122;5.404;2023-07-31T12:30:34;100742.59;;;18.31;100.00
75414;BME280;64758;52.122;5.404;2023-07-31T12:33:14;100738.25;;;18.30;100.00
75414;BME280;64758;52.122;5.404;2023-07-31T12:35:45;100730.78;;;18.32;100.00
75414;BME280;64758;52.122;5.404;2023-07-31T12:38:13;100718.38;;;18.31;100.00
75414;BME280;64758;52.122;5.404;2023-07-31T12:40:40;100732.88;;;18.30;100.00
75414;BME280;64758;52.122;5.404;2023-07-31T12:43:08;100716.84;;;18.24;100.00
75414;BME280;64758;52.122;5.404;2023-07-31T12:45:35;100726.44;;;18.31;100.00
75414;BME280;64758;52.122;5.404;2023-07-31T12:48:02;100725.97;;;18.34;100.00
75414;BME280;64758;52.122;5.404;2023-07-31T12:50:28;100717.06;;;18.34;100.00
75414;BME280;64758;52.122;5.404;2023-07-31T12:52:56;100723.28;;;18.34;100.00
75414;BME280;64758;52.122;5.404;2023-07-31T12:55:23;100722.13;;;18.30;100.00